createdAt,value
2022-09-13T11:32:50.031Z,33.61
2022-09-13T11:35:38.483Z,33.46
2022-09-13T11:38:47.008Z,34.00
2022-09-13T11:41:38.492Z,33.76
2022-09-13T11:44:28.656Z,33.37
2022-09-13T11:47:04.765Z,33.28
2022-09-13T11:49:59.000Z,32.47
2022-09-13T11:52:55.791Z,32.40
2022-09-13T11:55:33.542Z,32.96
2022-09-13T11:58:05.067Z,32.36
2022-09-13T12:00:53.348Z,33.46
2022-09-13T12:03:26.338Z,33.12
2022-09-13T12:06:12.543Z,33.44
2022-09-13T12:08:50.869Z,33.58
2022-09-13T12:11:35.925Z,34.12
2022-09-13T12:14:12.056Z,33.88
2022-09-13T12:16:42.998Z,35.10
2022-09-13T12:19:57.230Z,34.47
2022-09-13T12:22:30.997Z,34.74
2022-09-13T12:25:04.071Z,34.50
2022-09-13T12:28:06.156Z,34.18
2022-09-13T12:30:48.959Z,34.92
2022-09-13T12:33:16.459Z,34.97
2022-09-13T12:36:15.136Z,34.92
2022-09-13T12:39:12.307Z,35.34
2022-09-13T12:41:56.975Z,35.82
2022-09-13T12:44:43.409Z,35.25
2022-09-13T12:47:34.218Z,36.19
2022-09-13T12:53:27.993Z,35.86
2022-09-13T12:56:24.447Z,35.56
2022-09-13T12:59:10.032Z,35.20
2022-09-13T13:01:37.573Z,35.09
2022-09-13T13:04:13.883Z,34.78
2022-09-13T13:06:52.522Z,35.06
2022-09-13T13:09:28.479Z,34.40
2022-09-13T13:11:58.378Z,34.69
2022-09-13T13:14:46.096Z,34.35
2022-09-13T13:17:34.782Z,34.31
2022-09-13T13:20:22.042Z,34.03
2022-09-13T13:22:50.110Z,34.12
2022-09-13T13:25:40.711Z,35.18
2022-09-13T13:28:44.902Z,36.21
2022-09-13T13:31:24.748Z,36.78
2022-09-13T13:34:13.415Z,36.35
2022-09-13T13:36:39.991Z,37.16
2022-09-13T13:39:12.468Z,36.34
2022-09-13T13:42:03.570Z,36.49
2022-09-13T13:44:31.723Z,36.43
2022-09-13T13:47:07.417Z,36.60
2022-09-13T13:49:38.528Z,36.48
2022-09-13T13:52:15.664Z,35.92
2022-09-13T13:54:42.465Z,35.59
2022-09-13T13:57:29.906Z,35.12
2022-09-13T14:00:16.058Z,34.76
2022-09-13T14:02:49.376Z,33.97
2022-09-13T14:05:53.254Z,34.11
2022-09-13T14:08:29.416Z,34.01
2022-09-13T14:11:23.114Z,34.24
2022-09-13T14:14:11.253Z,33.58
2022-09-13T14:16:53.078Z,34.51
2022-09-13T14:19:35.659Z,34.14
2022-09-13T14:22:13.502Z,34.92
2022-09-13T14:24:48.898Z,33.87
2022-09-13T14:27:27.906Z,34.56
2022-09-13T14:29:58.885Z,34.27
2022-09-13T14:32:37.163Z,33.89
2022-09-13T14:35:29.922Z,34.49
2022-09-13T14:38:11.881Z,33.95
2022-09-13T14:40:39.105Z,33.17
2022-09-13T14:43:23.682Z,33.39
2022-09-13T14:46:27.146Z,33.24
2022-09-13T14:49:04.915Z,33.90
2022-09-13T14:51:42.489Z,33.72
2022-09-13T14:54:35.064Z,34.01
2022-09-13T14:57:03.760Z,33.86
2022-09-13T14:59:41.341Z,33.71
2022-09-13T15:02:27.010Z,34.10
2022-09-13T15:04:57.659Z,34.17
2022-09-13T15:07:31.863Z,35.28
2022-09-13T15:10:07.392Z,35.81
2022-09-13T15:12:35.319Z,35.50
2022-09-13T15:15:20.160Z,35.92
2022-09-13T15:17:54.046Z,36.47
2022-09-13T15:20:22.365Z,36.95
2022-09-13T15:22:53.742Z,36.69
2022-09-13T15:25:29.373Z,37.49
2022-09-13T15:27:57.776Z,37.36
2022-09-13T15:30:37.989Z,37.68
2022-09-13T15:33:11.552Z,37.76
2022-09-13T15:35:46.197Z,38.51
2022-09-13T15:38:17.826Z,38.88
2022-09-13T15:41:01.794Z,38.72
2022-09-13T15:43:29.734Z,39.32
2022-09-13T15:45:57.781Z,40.11
2022-09-13T15:48:35.383Z,39.87
2022-09-13T15:51:13.515Z,41.25
2022-09-13T15:53:42.451Z,42.40
2022-09-13T15:56:12.888Z,42.62
2022-09-13T15:58:39.649Z,43.17
2022-09-13T16:01:06.769Z,43.05
2022-09-13T16:03:33.649Z,42.67
2022-09-13T16:06:00.390Z,42.56
2022-09-13T16:08:27.004Z,43.15
2022-09-13T16:10:53.576Z,43.41
2022-09-13T16:13:20.352Z,43.36
2022-09-13T16:15:47.032Z,43.50
2022-09-13T16:18:16.284Z,43.39
2022-09-13T16:20:44.031Z,43.35
2022-09-13T16:23:11.705Z,43.77
2022-09-13T16:25:38.798Z,44.00
2022-09-13T16:28:06.878Z,44.40
2022-09-13T16:30:33.853Z,45.11
2022-09-13T16:33:00.738Z,45.02
2022-09-13T16:35:30.793Z,45.52
2022-09-13T16:37:57.633Z,44.90
2022-09-13T16:40:24.265Z,45.36
2022-09-13T16:42:51.734Z,45.40
2022-09-13T16:45:18.544Z,47.68
2022-09-13T16:47:45.128Z,48.53
2022-09-13T16:50:11.929Z,50.03
2022-09-13T16:52:39.063Z,50.36
2022-09-13T16:55:06.249Z,50.27
2022-09-13T16:57:33.473Z,51.04
2022-09-13T17:00:00.542Z,52.47
2022-09-13T17:02:27.960Z,53.32
2022-09-13T17:04:57.359Z,53.19
2022-09-13T17:07:24.002Z,53.96
2022-09-13T17:09:50.644Z,54.36
2022-09-13T17:12:17.887Z,54.68
2022-09-13T17:14:47.754Z,54.98
2022-09-13T17:17:20.325Z,55.19
2022-09-13T17:19:47.577Z,55.22
2022-09-13T17:22:14.473Z,55.78
2022-09-13T17:24:41.633Z,56.24
2022-09-13T17:27:08.557Z,56.61
2022-09-13T17:29:36.032Z,56.84
2022-09-13T17:32:05.845Z,57.21
2022-09-13T17:34:34.620Z,57.26
2022-09-13T17:37:03.584Z,57.19
2022-09-13T17:39:31.014Z,57.99
2022-09-13T17:41:58.137Z,57.78
2022-09-13T17:44:25.133Z,58.61
2022-09-13T17:46:51.810Z,58.66
2022-09-13T17:49:18.658Z,60.01
2022-09-13T17:51:45.281Z,61.05
2022-09-13T17:54:12.396Z,61.28
2022-09-13T17:56:54.742Z,62.51
2022-09-13T17:59:22.788Z,62.96
2022-09-13T18:01:52.720Z,63.58
2022-09-13T18:04:24.258Z,64.74
2022-09-13T18:06:52.455Z,65.17
2022-09-13T18:09:20.047Z,65.54
2022-09-13T18:11:46.852Z,66.03
2022-09-13T18:14:16.136Z,65.89
2022-09-13T18:16:43.599Z,66.63
2022-09-13T18:19:11.604Z,66.97
2022-09-13T18:21:38.806Z,67.13
2022-09-13T18:24:06.748Z,67.90
2022-09-13T18:26:34.161Z,68.33
2022-09-13T18:29:04.160Z,69.10
2022-09-13T18:31:32.476Z,69.28
2022-09-13T18:34:01.754Z,70.06
2022-09-13T18:36:29.837Z,70.19
2022-09-13T18:38:58.874Z,71.32
2022-09-13T18:41:30.220Z,71.40
2022-09-13T18:43:57.404Z,72.20
2022-09-13T18:46:26.455Z,72.02
2022-09-13T18:48:55.292Z,73.16
2022-09-13T18:51:24.652Z,72.80
2022-09-13T18:53:51.969Z,73.31
2022-09-13T18:56:21.150Z,73.25
2022-09-13T18:58:49.032Z,73.11
2022-09-13T19:01:16.971Z,74.04
2022-09-13T19:03:56.364Z,74.03
2022-09-13T19:06:25.574Z,74.80
2022-09-13T19:08:54.122Z,74.65
2022-09-13T19:11:45.160Z,74.68
2022-09-13T19:14:19.285Z,74.88
2022-09-13T19:16:47.358Z,74.49
2022-09-13T19:19:14.438Z,74.77
2022-09-13T19:21:41.816Z,75.17
2022-09-13T19:24:14.849Z,74.71
2022-09-13T19:26:46.134Z,75.07
2022-09-13T19:29:14.933Z,75.25
2022-09-13T19:31:44.601Z,75.68
2022-09-13T19:34:12.353Z,75.65
2022-09-13T19:36:40.274Z,75.77
2022-09-13T19:39:07.610Z,75.66
2022-09-13T19:41:34.798Z,75.44
2022-09-13T19:44:02.465Z,75.78
2022-09-13T19:46:32.131Z,75.50
2022-09-13T19:49:00.615Z,75.65
2022-09-13T19:51:36.175Z,75.40
2022-09-13T19:54:04.256Z,76.48
2022-09-13T19:56:36.093Z,77.15
2022-09-13T19:59:03.821Z,77.06
2022-09-13T20:01:34.418Z,77.20
2022-09-13T20:04:04.656Z,76.32
2022-09-13T20:06:37.498Z,76.51
2022-09-13T20:09:05.571Z,76.95
2022-09-13T20:11:33.203Z,76.99
2022-09-13T20:14:00.757Z,76.92
2022-09-13T20:16:36.200Z,77.15
2022-09-13T20:19:13.740Z,77.71
2022-09-13T20:21:50.474Z,77.98
2022-09-13T20:24:18.773Z,78.24
2022-09-13T20:26:45.964Z,78.45
2022-09-13T20:29:14.924Z,78.93
2022-09-13T20:31:41.821Z,79.41
2022-09-13T20:34:11.114Z,79.50
2022-09-13T20:36:38.451Z,79.85
2022-09-13T20:39:06.435Z,79.56
2022-09-13T20:41:34.492Z,79.92
2022-09-13T20:44:01.474Z,79.82
2022-09-13T20:46:31.782Z,80.03
2022-09-13T20:48:58.668Z,80.14
2022-09-13T20:51:25.643Z,80.25
2022-09-13T20:53:57.361Z,80.57
2022-09-13T20:56:24.618Z,80.26
2022-09-13T20:58:57.313Z,80.31
2022-09-13T21:01:26.427Z,80.35
2022-09-13T21:03:54.866Z,80.34
2022-09-13T21:06:25.278Z,81.02
2022-09-13T21:08:52.707Z,80.89
2022-09-13T21:11:33.338Z,80.81
2022-09-13T21:14:09.112Z,80.86
2022-09-13T21:16:45.008Z,81.13
2022-09-13T21:19:12.214Z,81.27
2022-09-13T21:21:40.981Z,80.98
2022-09-13T21:24:11.191Z,81.87
2022-09-13T21:26:43.303Z,81.34
2022-09-13T21:29:11.440Z,81.24
2022-09-13T21:31:38.907Z,81.26
2022-09-13T21:34:14.586Z,81.51
2022-09-13T21:36:42.802Z,81.47
2022-09-13T21:39:10.131Z,81.06
2022-09-13T21:41:37.359Z,81.03
2022-09-13T21:44:04.540Z,81.21
2022-09-13T21:46:34.467Z,81.01
2022-09-13T21:49:03.828Z,81.43
2022-09-13T21:51:33.501Z,81.52
2022-09-13T21:54:02.204Z,81.64
2022-09-13T21:56:31.148Z,81.80
2022-09-13T21:59:00.160Z,81.92
2022-09-13T22:01:35.457Z,82.19
2022-09-13T22:04:02.898Z,82.34
2022-09-13T22:06:33.669Z,82.40
2022-09-13T22:09:05.338Z,82.49
2022-09-13T22:11:38.531Z,82.60
2022-09-13T22:14:09.723Z,82.12
2022-09-13T22:16:39.039Z,82.66
2022-09-13T22:19:15.730Z,82.57
2022-09-13T22:21:45.655Z,83.58
2022-09-13T22:24:18.863Z,83.68
2022-09-13T22:26:46.966Z,83.69
2022-09-13T22:29:15.175Z,83.89
2022-09-13T22:31:45.249Z,83.31
2022-09-13T22:34:17.381Z,83.28
2022-09-13T22:36:44.830Z,83.28
2022-09-13T22:39:13.332Z,83.60
2022-09-13T22:41:40.893Z,83.46
2022-09-13T22:44:08.115Z,82.55
2022-09-13T22:46:37.985Z,81.93
2022-09-13T22:49:05.580Z,82.18
2022-09-13T22:51:33.671Z,82.21
2022-09-13T22:54:04.832Z,82.66
2022-09-13T22:56:35.456Z,82.62
2022-09-13T22:59:10.916Z,82.21
2022-09-13T23:01:38.118Z,82.72
2022-09-13T23:04:05.524Z,82.77
2022-09-13T23:06:32.421Z,83.20
2022-09-13T23:09:01.413Z,83.33
2022-09-13T23:11:30.759Z,83.00
2022-09-13T23:14:01.646Z,83.21
2022-09-13T23:16:32.212Z,83.50
2022-09-13T23:19:00.094Z,83.15
2022-09-13T23:21:29.822Z,83.19
2022-09-13T23:23:57.726Z,83.13
2022-09-13T23:26:24.453Z,83.68
2022-09-13T23:28:57.249Z,83.67
2022-09-13T23:31:29.500Z,83.82
2022-09-13T23:33:59.652Z,83.75
2022-09-13T23:36:29.525Z,83.66
2022-09-13T23:38:59.162Z,84.15
2022-09-13T23:41:26.926Z,84.24
2022-09-13T23:43:54.152Z,84.46
2022-09-13T23:46:21.251Z,84.26
2022-09-13T23:48:48.561Z,84.21
2022-09-13T23:51:21.055Z,83.58
2022-09-13T23:53:47.869Z,83.00
2022-09-13T23:56:14.562Z,83.57
2022-09-13T23:58:41.377Z,84.19
